Minami-daito

Current Flights

Departures
Number Departure To Airline
 RAC862 02:20  Naha  Ryukyu Air Commuter
 RAC835 05:45  Kitadaito  Ryukyu Air Commuter
 RAC862 02:20  Naha  Ryukyu Air Commuter
Arrivals
Number Arrival From Airline
 RAC861 01:50 +1037  Naha  Ryukyu Air Commuter
 RAC861 01:50  Naha  Ryukyu Air Commuter
 RAC867 05:15  Naha  Ryukyu Air Commuter
 RAC861 01:50  Naha  Ryukyu Air Commuter
 RAC867 05:15  Naha  Ryukyu Air Commuter
Info
Name: Minami-daito
Identifier:  MMD/ROMD
Local Time:  20. May 19:06
City
Minamidaito
  Japan

Flights per Day
2 flights
Distance: 232km (144mi)
Punctuality
93% (0 flights per day delayed)
Delay Average: 20 minutes
Current Weather
 24 C (Humidity: 100%)
  8kt (14km/h / 9mph) from 300°
  Few clouds at 500 feet (152 meter)
  Scattered clouds at 700 feet (213 meter)
  Broken clouds at 1,300 feet (396 meter)
  9km (6 mi.)
 METAR ROMD 201800Z AUTO 30008KT 270V330 9999 FEW005 SCT007 BKN013 24/24 Q1003

Current Delays

Departures
N/A
Arrivals
N/A

Destinations

Top Destinations
Airport Flights
per week
Seats
per week
  Naha (OKA) <1 35 0 5
  Kitadaito (KTD) <1 7 0 1

Airlines & Planes

Top Airlines
Airline Flights
per Day
Seats
per Day
  Ryukyu Air Commuter <1 6
Top Plane Types
Manufacturer Model Flights Seats
Bombardier Dash 8-400 0.1/day 6/day 6.666666666666667